KABI/ABI METAR and TAF weather

Enter ICAO airport designator
Station Type Date Time Source
KABI METAR 2018/12/12 16:52 UTC NOAA

KABI 121652Z 19010KT 10SM CLR 12/08 A2993 RMK AO2 SLP129 T01220083


Station Type Date Time Source
KABI Decoded METAR 2018/12/12 16:52 UTC NOAA

ABILENE REGIONAL AIRPORT, TX, United States (KABI) 32-25N 099-41W 548M
Dec 12, 2018 - 11:52 AM EST / 2018.12.12 1652 UTC
Wind: from the S (190 degrees) at 12 MPH (10 KT):0
Visibility: 10 mile(s):0
Sky conditions: clear
Temperature: 54.0 F (12.2 C)
Dew Point: 46.9 F (8.3 C)
Relative Humidity: 77%
Pressure (altimeter): 29.93 in. Hg (1013 hPa)
ob: KABI 121652Z 19010KT 10SM CLR 12/08 A2993 RMK AO2 SLP129 T01220083
cycle: 17

Station Type Date Time Source
KABI TAF 2018/12/12 12:36 UTC NOAA

TAF KABI 121135Z 1212/1312 21011KT P6SM OVC200
FM130000 18010KT P6SM OVC100
FM130300 18014G21KT P6SM OVC100


Example: see airport list